Rio Branco の空港の天気 - METARとTAF

リオブランコ国際空港 ( SBRB / RBR ) - ブラジル アクレ州、Rio Branco
飛行場実況気象(Metar)
観測時間04/15 00:00 ACT (04/15 05:00 UTC)
風向・風速北北西 1m/s
視程10km以上
天気現象
なし
気温23℃
湿度100%
気圧1012hPa
METARSBRB 150500Z 33002KT CAVOK 23/23 Q1012
過去の天気等 Google飛行場航空写真 Wunderground天気予報

過去48時間のMETAR

飛行場予報(TAF)
発表時間: 4/14 15:57 ACT (4/14 20:57 UTC)
予報対象時間: 14日19時 ACT ~ 15日7時 ACT
風向・風速南東 3m/s
視程10km以上
全天の4割程度の雲 雲底高度 760m
少しの塔状積雲 雲底高度 910m
14日21時 ACT ~ 14日23時 ACT に徐々に
視程10km以上
なし
15日3時 ACT から 確率 30% で
視程3000m
天気現象
全天の8割程度の雲 雲底高度 210m
TAF SBRB 142057Z 1500/1512 14005KT 9999 SCT025 FEW030TCU TN22/1508Z TX24/1512Z
BECMG 1502/1504 CAVOK
PROB30 1508/1511 3000 RA BKN007 RMK PHQ